createdAt,value
2019-01-12T00:00:31.276Z,300.22
2019-01-12T00:01:31.263Z,301.07
2019-01-12T00:02:31.261Z,300.72
2019-01-12T00:03:31.237Z,300.77
2019-01-12T00:04:31.272Z,301.42
2019-01-12T00:05:31.235Z,300.80
2019-01-12T00:06:31.210Z,300.72
2019-01-12T00:07:31.203Z,300.63
2019-01-12T00:08:31.196Z,301.13
2019-01-12T00:09:31.224Z,300.55
2019-01-12T00:10:31.166Z,301.23
2019-01-12T00:11:31.218Z,301.03
2019-01-12T00:12:31.168Z,301.19
2019-01-12T00:13:31.187Z,300.57
2019-01-12T00:14:31.183Z,300.53
2019-01-12T00:15:31.117Z,301.01
2019-01-12T00:16:31.142Z,300.95
2019-01-12T00:17:31.096Z,301.03
2019-01-12T00:18:31.103Z,300.63
2019-01-12T00:19:31.109Z,300.89
2019-01-12T00:20:31.074Z,300.83
2019-01-12T00:21:31.055Z,300.32
2019-01-12T00:22:31.049Z,300.68
2019-01-12T00:23:31.036Z,301.24
2019-01-12T00:24:31.722Z,300.30
2019-01-12T00:25:31.006Z,300.45
2019-01-12T00:26:31.035Z,300.91
2019-01-12T00:27:30.972Z,301.02
2019-01-12T00:28:30.991Z,300.52
2019-01-12T00:29:31.009Z,300.56
2019-01-12T00:30:30.969Z,300.64
2019-01-12T00:31:30.956Z,300.83
2019-01-12T00:33:47.557Z,299.60
2019-01-12T00:34:47.503Z,300.49
2019-01-12T00:35:47.529Z,300.78
2019-01-12T00:36:47.577Z,300.92
2019-01-12T00:37:47.505Z,300.83
2019-01-12T00:38:47.449Z,300.57
2019-01-12T00:39:47.847Z,300.89
2019-01-12T00:40:47.439Z,300.43
2019-01-12T00:41:47.417Z,300.54
2019-01-12T00:42:47.420Z,300.63
2019-01-12T00:43:47.415Z,300.82
2019-01-12T00:44:47.398Z,300.86
2019-01-12T00:45:47.370Z,300.67
2019-01-12T00:46:47.385Z,300.76
2019-01-12T00:47:47.364Z,300.83
2019-01-12T00:48:47.361Z,300.92
2019-01-12T00:49:47.366Z,300.89
2019-01-12T00:50:47.326Z,300.75
2019-01-12T00:51:47.310Z,300.88
2019-01-12T00:52:47.318Z,300.49
2019-01-12T00:53:47.990Z,300.89
2019-01-12T00:54:47.327Z,300.80
2019-01-12T00:55:47.277Z,300.81
2019-01-12T00:56:47.257Z,300.54
2019-01-12T00:57:47.265Z,300.82
2019-01-12T00:58:47.249Z,301.14
2019-01-12T00:59:47.260Z,300.37
2019-01-12T01:00:47.240Z,300.49
2019-01-12T01:01:47.226Z,300.86
2019-01-12T01:02:47.201Z,300.45
2019-01-12T01:03:47.194Z,300.28
2019-01-12T01:04:47.211Z,300.61
2019-01-12T01:05:47.183Z,300.61
2019-01-12T01:06:47.169Z,301.10
2019-01-12T01:07:47.150Z,300.91
2019-01-12T01:08:47.134Z,301.21
2019-01-12T01:09:47.137Z,301.51
2019-01-12T01:10:47.134Z,301.10
2019-01-12T01:11:47.132Z,301.42
2019-01-12T01:12:47.080Z,300.75
2019-01-12T01:13:47.084Z,300.95
2019-01-12T01:14:47.111Z,301.30
2019-01-12T01:15:47.080Z,301.44
2019-01-12T01:16:47.076Z,301.10
2019-01-12T01:17:47.047Z,300.76
2019-01-12T01:18:47.051Z,300.90
2019-01-12T01:19:47.059Z,300.62
2019-01-12T01:20:47.056Z,300.86
2019-01-12T01:21:47.022Z,300.85
2019-01-12T01:22:47.038Z,301.09
2019-01-12T01:23:47.016Z,300.88
2019-01-12T01:24:47.007Z,300.64
2019-01-12T01:25:46.952Z,300.64
2019-01-12T01:26:46.930Z,300.86
2019-01-12T01:27:46.927Z,300.76
2019-01-12T01:28:46.931Z,300.65
2019-01-12T01:29:46.945Z,300.37
2019-01-12T01:30:46.915Z,300.71
2019-01-12T01:31:46.883Z,300.63
2019-01-12T01:32:46.926Z,301.00
2019-01-12T01:33:46.868Z,300.94
2019-01-12T01:34:46.924Z,301.33
2019-01-12T01:35:46.895Z,301.11
2019-01-12T01:36:46.854Z,300.67
2019-01-12T01:37:55.945Z,300.25
2019-01-12T01:38:46.936Z,300.47
2019-01-12T01:39:54.414Z,300.24
2019-01-12T01:40:46.961Z,300.48
2019-01-12T01:41:46.891Z,300.67
2019-01-12T01:42:46.825Z,300.99
2019-01-12T01:43:46.766Z,300.31
2019-01-12T01:44:46.768Z,300.06
2019-01-12T01:45:46.758Z,300.48
2019-01-12T01:46:46.759Z,300.31
2019-01-12T01:47:46.741Z,300.94
2019-01-12T01:48:47.399Z,300.74
2019-01-12T01:49:46.723Z,301.05
2019-01-12T01:50:46.725Z,300.88
2019-01-12T01:51:47.418Z,300.97
2019-01-12T01:52:48.266Z,301.00
2019-01-12T01:53:46.679Z,300.91
2019-01-12T01:54:52.611Z,301.03
2019-01-12T01:55:47.695Z,300.53
2019-01-12T01:56:46.642Z,300.83
2019-01-12T01:57:46.632Z,300.55
2019-01-12T01:58:46.618Z,301.44
2019-01-12T01:59:46.616Z,301.49
2019-01-12T02:00:54.722Z,301.15
2019-01-12T02:01:54.802Z,301.14
2019-01-12T02:02:46.656Z,300.90
2019-01-12T02:03:46.570Z,301.31
2019-01-12T02:04:46.556Z,301.50
2019-01-12T02:05:46.545Z,300.83
2019-01-12T02:06:46.521Z,301.09
2019-01-12T02:07:46.532Z,301.44
2019-01-12T02:08:46.526Z,301.46
2019-01-12T02:09:46.490Z,301.42
2019-01-12T02:10:46.504Z,300.86
2019-01-12T02:11:46.475Z,301.11
2019-01-12T02:12:46.455Z,301.15
2019-01-12T02:13:46.456Z,301.30
2019-01-12T02:14:46.457Z,301.06
2019-01-12T02:15:46.436Z,301.08
2019-01-12T02:16:46.432Z,301.23
2019-01-12T02:17:46.433Z,301.05
2019-01-12T02:18:46.403Z,301.17
2019-01-12T02:19:46.396Z,301.38
2019-01-12T02:20:46.391Z,301.06
2019-01-12T02:21:46.993Z,301.59
2019-01-12T02:22:46.361Z,300.99
2019-01-12T02:23:46.328Z,301.29
2019-01-12T02:24:46.321Z,301.05
2019-01-12T02:25:46.330Z,301.21
2019-01-12T02:26:46.301Z,300.85
2019-01-12T02:27:46.290Z,300.57
2019-01-12T02:28:46.291Z,300.65
2019-01-12T02:29:53.371Z,301.10
2019-01-12T02:30:54.414Z,300.74
2019-01-12T02:31:46.273Z,300.85
2019-01-12T02:32:46.248Z,300.70
2019-01-12T02:33:46.255Z,300.87
2019-01-12T02:34:46.214Z,301.21
2019-01-12T02:35:46.222Z,301.07
2019-01-12T02:36:46.195Z,300.86
2019-01-12T02:37:46.205Z,301.02
2019-01-12T02:38:46.211Z,300.71
2019-01-12T02:39:46.212Z,301.08
2019-01-12T02:40:46.178Z,300.98
2019-01-12T02:41:46.139Z,300.59
2019-01-12T02:42:46.148Z,301.22
2019-01-12T02:43:46.125Z,301.48
2019-01-12T02:44:46.122Z,301.15
2019-01-12T02:45:46.142Z,300.93
2019-01-12T02:46:46.096Z,301.66
2019-01-12T02:47:46.103Z,301.37
2019-01-12T02:48:46.074Z,301.33
2019-01-12T02:49:46.069Z,301.33
2019-01-12T02:50:46.061Z,301.36
2019-01-12T02:51:46.088Z,301.07
2019-01-12T02:52:46.037Z,301.43
2019-01-12T02:53:46.021Z,301.15
2019-01-12T02:54:46.050Z,301.18
2019-01-12T02:55:46.032Z,301.65
2019-01-12T02:56:46.014Z,301.11
2019-01-12T02:57:46.097Z,301.35
2019-01-12T02:58:45.957Z,301.06
2019-01-12T02:59:45.959Z,300.87
2019-01-12T03:00:45.976Z,301.30
2019-01-12T03:01:45.938Z,301.38
2019-01-12T03:02:45.932Z,300.88
2019-01-12T03:03:45.932Z,301.22
2019-01-12T03:04:45.888Z,301.44
2019-01-12T03:05:45.921Z,301.15
2019-01-12T03:06:45.890Z,300.81
2019-01-12T03:07:45.895Z,301.01
2019-01-12T03:08:45.857Z,301.18
2019-01-12T03:09:45.831Z,300.73
2019-01-12T03:10:45.859Z,301.19
2019-01-12T03:11:45.840Z,301.26
2019-01-12T03:12:45.820Z,301.17
2019-01-12T03:13:45.826Z,301.17
2019-01-12T03:14:45.814Z,301.65
2019-01-12T03:15:45.795Z,301.73
2019-01-12T03:16:45.767Z,302.05
2019-01-12T03:17:45.777Z,301.59
2019-01-12T03:18:45.767Z,301.76
2019-01-12T03:19:45.759Z,302.31
2019-01-12T03:20:45.769Z,302.17
2019-01-12T03:21:45.735Z,301.88
2019-01-12T03:22:45.722Z,301.65
2019-01-12T03:23:45.729Z,301.90
2019-01-12T03:24:45.689Z,301.77
2019-01-12T03:25:45.710Z,301.63
2019-01-12T03:26:45.670Z,301.58
2019-01-12T03:27:45.657Z,301.76
2019-01-12T03:28:45.675Z,301.32
2019-01-12T03:29:45.648Z,301.66
2019-01-12T03:30:45.650Z,301.93
2019-01-12T03:31:45.638Z,301.74
2019-01-12T03:32:45.694Z,301.70
2019-01-12T03:33:45.609Z,301.64
2019-01-12T03:34:45.573Z,301.87
2019-01-12T03:35:45.605Z,301.87
2019-01-12T03:36:45.573Z,301.32
2019-01-12T03:37:45.569Z,301.57
2019-01-12T03:38:45.536Z,301.97
2019-01-12T03:39:45.522Z,301.60
2019-01-12T03:40:45.587Z,301.53
2019-01-12T03:41:45.514Z,301.66
2019-01-12T03:42:45.528Z,302.06
2019-01-12T03:43:45.503Z,301.17
2019-01-12T03:44:45.476Z,301.87
2019-01-12T03:45:45.449Z,301.93
2019-01-12T03:46:45.473Z,301.94
2019-01-12T03:47:45.437Z,301.62
2019-01-12T03:48:45.456Z,301.63
2019-01-12T03:49:45.453Z,301.56
2019-01-12T03:50:45.418Z,301.55
2019-01-12T03:51:45.407Z,301.90
2019-01-12T03:52:45.387Z,301.33
2019-01-12T03:53:45.398Z,301.47
2019-01-12T03:54:45.381Z,301.97
2019-01-12T03:55:45.375Z,301.68
2019-01-12T03:56:45.393Z,301.69
2019-01-12T03:57:45.400Z,301.26
2019-01-12T03:58:45.326Z,301.66
2019-01-12T03:59:45.327Z,301.79
2019-01-12T04:00:45.293Z,301.85
2019-01-12T04:01:45.323Z,301.63
2019-01-12T04:02:45.289Z,301.47
2019-01-12T04:03:45.271Z,301.86
2019-01-12T04:04:53.351Z,301.47
2019-01-12T04:06:57.020Z,300.68
2019-01-12T04:08:04.997Z,302.24
2019-01-12T04:08:56.867Z,302.86
2019-01-12T04:09:56.905Z,302.49
2019-01-12T04:10:56.858Z,302.06
2019-01-12T04:12:03.942Z,302.49
2019-01-12T04:12:56.839Z,302.01
2019-01-12T04:14:04.963Z,301.90
2019-01-12T04:14:56.818Z,302.00
2019-01-12T04:16:03.894Z,302.31
2019-01-12T04:17:04.914Z,303.80
2019-01-12T04:17:56.809Z,302.80
2019-01-12T04:18:56.784Z,302.94
2019-01-12T04:19:56.784Z,302.43
2019-01-12T04:20:56.732Z,301.75
2019-01-12T04:21:56.733Z,302.22
2019-01-12T04:22:56.730Z,302.33
2019-01-12T04:23:56.684Z,302.23
2019-01-12T04:24:56.703Z,302.38
2019-01-12T04:25:56.683Z,302.14
2019-01-12T04:26:56.690Z,301.95
2019-01-12T04:27:56.681Z,301.74
2019-01-12T04:28:56.656Z,302.17
2019-01-12T04:29:56.649Z,302.01
2019-01-12T04:30:56.646Z,302.21
2019-01-12T04:31:56.645Z,302.24
2019-01-12T04:33:04.376Z,302.47
2019-01-12T04:36:38.329Z,301.44
2019-01-12T04:37:46.269Z,302.12
2019-01-12T04:38:38.631Z,302.40
2019-01-12T04:39:38.189Z,302.08
2019-01-12T04:40:38.167Z,302.02
2019-01-12T04:41:38.168Z,302.06
2019-01-12T04:42:38.145Z,301.92
2019-01-12T04:43:38.149Z,302.25
2019-01-12T04:44:38.175Z,302.39
2019-01-12T04:45:38.101Z,302.35
2019-01-12T04:46:38.124Z,302.20
2019-01-12T04:47:45.235Z,302.22
2019-01-12T04:48:38.735Z,302.21
2019-01-12T04:49:38.092Z,302.15
2019-01-12T04:50:38.065Z,302.29
2019-01-12T04:51:38.077Z,302.68
2019-01-12T04:52:38.024Z,302.77
2019-01-12T04:53:38.021Z,301.83
2019-01-12T04:54:38.012Z,302.55
2019-01-12T04:55:41.463Z,302.50
2019-01-12T04:56:38.025Z,302.53
2019-01-12T04:57:38.005Z,302.35
2019-01-12T04:58:37.985Z,302.64
2019-01-12T04:59:37.972Z,302.03
2019-01-12T05:00:37.959Z,302.36
2019-01-12T05:01:37.959Z,301.78
2019-01-12T05:02:37.945Z,302.86
2019-01-12T05:03:46.030Z,301.91
2019-01-12T05:04:46.006Z,302.65
2019-01-12T05:05:37.996Z,303.36
2019-01-12T05:06:37.923Z,301.73
2019-01-12T05:07:37.867Z,302.01
2019-01-12T05:08:37.859Z,302.88
2019-01-12T05:09:37.839Z,302.83
2019-01-12T05:10:37.866Z,302.36
2019-01-12T05:11:37.877Z,302.35
2019-01-12T05:12:38.785Z,302.24
2019-01-12T05:13:37.827Z,302.06
2019-01-12T05:14:37.823Z,301.94
2019-01-12T05:15:37.822Z,302.84
2019-01-12T05:16:37.819Z,301.98
2019-01-12T05:17:37.824Z,302.44
2019-01-12T05:18:37.797Z,302.79
2019-01-12T05:19:37.760Z,302.45
2019-01-12T05:20:37.742Z,302.49
2019-01-12T05:21:37.753Z,302.63
2019-01-12T05:22:37.736Z,302.12
2019-01-12T05:23:38.282Z,302.14
2019-01-12T05:24:37.774Z,302.37
2019-01-12T05:25:37.683Z,302.26
2019-01-12T05:26:37.727Z,302.14
2019-01-12T05:27:37.737Z,302.76
2019-01-12T05:28:37.660Z,302.21
2019-01-12T05:29:37.651Z,302.86
2019-01-12T05:30:37.626Z,302.32
2019-01-12T05:31:37.649Z,302.17
2019-01-12T05:32:37.606Z,302.50
2019-01-12T05:33:37.621Z,301.64
2019-01-12T05:34:37.606Z,302.25
2019-01-12T05:35:37.599Z,302.11
2019-01-12T05:36:37.604Z,301.43
2019-01-12T05:37:37.599Z,302.13
2019-01-12T05:38:37.577Z,302.21
2019-01-12T05:39:37.554Z,301.90
2019-01-12T05:40:37.545Z,301.51
2019-01-12T05:41:37.514Z,302.50
2019-01-12T05:42:37.530Z,302.25
2019-01-12T05:43:37.501Z,302.33
2019-01-12T05:44:37.501Z,302.54
2019-01-12T05:45:37.520Z,302.52
2019-01-12T05:46:44.584Z,302.34
2019-01-12T05:47:37.474Z,302.20
2019-01-12T05:48:46.338Z,301.82
2019-01-12T05:49:37.463Z,302.12
2019-01-12T05:50:37.463Z,301.78
2019-01-12T05:51:37.419Z,302.04
2019-01-12T05:52:37.427Z,302.52
2019-01-12T05:53:37.380Z,302.38
2019-01-12T05:54:37.367Z,301.73
2019-01-12T05:55:37.383Z,302.54
2019-01-12T05:56:37.362Z,302.23
2019-01-12T05:57:37.357Z,301.62
2019-01-12T05:58:37.349Z,301.57
2019-01-12T05:59:37.347Z,301.88
2019-01-12T06:00:37.324Z,301.65
2019-01-12T06:01:37.316Z,302.51
2019-01-12T06:02:37.311Z,301.34
2019-01-12T06:03:37.808Z,301.63
2019-01-12T06:04:37.285Z,301.70
2019-01-12T06:05:37.293Z,301.87
2019-01-12T06:06:37.324Z,301.66
2019-01-12T06:07:37.274Z,301.35
2019-01-12T06:08:37.278Z,301.88
2019-01-12T06:09:37.232Z,301.23
2019-01-12T06:10:37.222Z,301.27
2019-01-12T06:11:37.232Z,301.42
2019-01-12T06:12:37.227Z,301.52
2019-01-12T06:13:37.194Z,301.25
2019-01-12T06:14:37.199Z,301.33
2019-01-12T06:15:37.165Z,301.28
2019-01-12T06:16:45.205Z,301.60
2019-01-12T06:17:45.253Z,301.16
2019-01-12T06:18:44.937Z,301.89
2019-01-12T06:19:37.127Z,301.60
2019-01-12T06:20:37.134Z,302.21
2019-01-12T06:21:37.161Z,302.13
2019-01-12T06:22:37.099Z,301.67
2019-01-12T06:23:37.068Z,301.29
2019-01-12T06:24:37.071Z,301.07
2019-01-12T06:25:37.076Z,301.77
2019-01-12T06:26:37.044Z,301.96
2019-01-12T06:27:37.050Z,302.17
2019-01-12T06:28:37.037Z,302.19
2019-01-12T06:29:37.008Z,301.72
2019-01-12T06:30:36.999Z,302.06
2019-01-12T06:31:37.022Z,302.17
2019-01-12T06:32:36.989Z,302.65
2019-01-12T06:33:36.981Z,301.46
2019-01-12T06:34:37.884Z,302.37
2019-01-12T06:35:36.960Z,301.96
2019-01-12T06:36:36.952Z,301.38
2019-01-12T06:37:36.944Z,301.49
2019-01-12T06:38:36.958Z,301.95
2019-01-12T06:39:36.927Z,301.30
2019-01-12T06:40:37.888Z,301.58
2019-01-12T06:41:36.897Z,300.95
2019-01-12T06:42:36.888Z,302.05
2019-01-12T06:43:36.914Z,301.52
2019-01-12T06:44:36.863Z,302.04
2019-01-12T06:45:36.904Z,301.63
2019-01-12T06:46:37.391Z,301.37
2019-01-12T06:47:36.861Z,301.65
2019-01-12T06:48:37.367Z,301.37
2019-01-12T06:49:36.815Z,301.69
2019-01-12T06:50:36.788Z,301.65
2019-01-12T06:51:36.799Z,302.16
2019-01-12T06:52:36.797Z,301.64
2019-01-12T06:53:36.774Z,302.15
2019-01-12T06:54:36.771Z,302.80
2019-01-12T06:55:36.731Z,301.96
2019-01-12T06:56:36.729Z,301.66
2019-01-12T06:57:36.741Z,301.67
2019-01-12T06:58:36.720Z,302.03
2019-01-12T06:59:36.686Z,301.83
2019-01-12T07:00:36.714Z,301.44
2019-01-12T07:01:36.682Z,301.51
2019-01-12T07:02:36.705Z,301.43
2019-01-12T07:03:36.677Z,301.85
2019-01-12T07:04:36.666Z,301.35
2019-01-12T07:05:36.654Z,301.27
2019-01-12T07:06:36.628Z,302.14
2019-01-12T07:07:36.659Z,303.38
2019-01-12T07:08:36.606Z,302.59
2019-01-12T07:09:36.591Z,302.23
2019-01-12T07:10:36.583Z,302.32
2019-01-12T07:11:36.571Z,302.33
2019-01-12T07:12:36.603Z,302.02
2019-01-12T07:13:36.563Z,301.85
2019-01-12T07:14:44.440Z,302.58
2019-01-12T07:15:36.526Z,302.34
2019-01-12T07:16:36.526Z,302.10
2019-01-12T07:17:37.395Z,302.59
2019-01-12T07:18:36.503Z,301.67
2019-01-12T07:19:36.479Z,302.28
2019-01-12T07:20:36.478Z,302.25
2019-01-12T07:21:36.470Z,302.42
2019-01-12T07:22:36.480Z,302.12
2019-01-12T07:23:36.454Z,302.94
2019-01-12T07:24:36.483Z,303.08
2019-01-12T07:25:36.434Z,301.98
2019-01-12T07:26:36.432Z,301.97
2019-01-12T07:27:36.434Z,302.83
2019-01-12T07:28:36.407Z,302.42
2019-01-12T07:29:36.403Z,302.53
2019-01-12T07:30:36.455Z,303.00
2019-01-12T07:31:43.422Z,302.54
2019-01-12T07:32:36.379Z,302.77
2019-01-12T07:33:36.354Z,302.47
2019-01-12T07:34:36.409Z,302.20
2019-01-12T07:35:36.340Z,302.58
2019-01-12T07:36:36.348Z,302.52
2019-01-12T07:37:36.350Z,303.04
2019-01-12T07:38:36.333Z,302.93
2019-01-12T07:39:36.280Z,303.43
2019-01-12T07:40:36.273Z,303.26
2019-01-12T07:41:36.279Z,303.20
2019-01-12T07:42:36.330Z,303.14
2019-01-12T07:43:36.260Z,302.86
2019-01-12T07:44:36.276Z,302.99
2019-01-12T07:45:36.217Z,303.06
2019-01-12T07:46:36.227Z,303.09
2019-01-12T07:47:36.315Z,303.39
2019-01-12T07:48:36.219Z,303.65
2019-01-12T07:50:14.833Z,303.67
2019-01-12T07:50:36.241Z,303.90
2019-01-12T07:51:37.070Z,302.92
2019-01-12T07:52:36.157Z,303.63
2019-01-12T07:53:36.946Z,303.63
2019-01-12T07:54:45.139Z,303.63
2019-01-12T07:55:36.166Z,303.25
2019-01-12T07:56:44.358Z,303.83
2019-01-12T07:57:36.161Z,303.43
2019-01-12T07:58:36.227Z,303.67
2019-01-12T07:59:44.161Z,303.64
2019-01-12T08:00:43.680Z,303.23
2019-01-12T08:01:44.177Z,303.33
2019-01-12T08:02:45.654Z,302.75
2019-01-12T08:03:36.152Z,302.79
2019-01-12T08:04:43.666Z,303.23
2019-01-12T08:05:46.217Z,303.43
2019-01-12T08:06:44.106Z,303.36
2019-01-12T08:07:36.011Z,303.17
2019-01-12T08:08:43.158Z,302.91
2019-01-12T08:09:43.131Z,302.74
2019-01-12T08:10:36.124Z,303.44
2019-01-12T08:11:35.987Z,303.41
2019-01-12T08:12:35.945Z,303.56
2019-01-12T08:13:35.966Z,303.76
2019-01-12T08:14:35.907Z,303.29
2019-01-12T08:15:35.893Z,303.93
2019-01-12T08:16:35.905Z,304.12
2019-01-12T08:17:35.908Z,303.80
2019-01-12T08:18:35.944Z,304.01
2019-01-12T08:21:20.148Z,304.34
2019-01-12T08:23:37.341Z,303.63
2019-01-12T08:24:39.854Z,304.05
2019-01-12T08:25:37.295Z,304.52
2019-01-12T08:27:52.212Z,303.33
2019-01-12T08:33:26.500Z,303.61
2019-01-12T08:36:09.018Z,303.38
2019-01-12T08:37:08.503Z,303.31
2019-01-12T08:39:48.022Z,304.35
2019-01-12T08:40:48.133Z,304.43
2019-01-12T08:41:47.984Z,304.79
2019-01-12T08:42:58.187Z,304.59
2019-01-12T08:43:47.979Z,304.26
2019-01-12T08:44:48.156Z,304.75
2019-01-12T08:47:05.516Z,302.82
2019-01-12T08:48:05.553Z,303.76
2019-01-12T08:49:05.517Z,303.82
2019-01-12T08:50:05.514Z,303.72
2019-01-12T08:51:06.431Z,303.67
2019-01-12T08:52:05.433Z,304.64
2019-01-12T08:53:05.459Z,303.84
2019-01-12T08:54:05.514Z,303.15
2019-01-12T08:55:05.406Z,304.09
2019-01-12T08:56:05.428Z,304.42
2019-01-12T08:57:05.377Z,303.77
2019-01-12T08:58:05.363Z,303.97
2019-01-12T08:59:05.370Z,304.05
2019-01-12T09:00:05.336Z,304.70
2019-01-12T09:01:05.326Z,304.04
2019-01-12T09:02:05.335Z,304.07
2019-01-12T09:03:05.824Z,303.90
2019-01-12T09:04:05.355Z,303.85
2019-01-12T09:05:05.284Z,304.31
2019-01-12T09:06:05.293Z,304.16
2019-01-12T09:07:05.273Z,304.29
2019-01-12T09:08:05.274Z,304.85
2019-01-12T09:09:05.277Z,304.23
2019-01-12T09:10:05.264Z,304.53
2019-01-12T09:11:05.224Z,304.64
2019-01-12T09:12:06.245Z,304.06
2019-01-12T09:13:05.235Z,305.03
2019-01-12T09:14:05.276Z,305.63
2019-01-12T09:15:05.960Z,304.88
2019-01-12T09:16:05.226Z,304.80
2019-01-12T09:17:05.221Z,304.31
2019-01-12T09:18:05.149Z,305.00
2019-01-12T09:19:05.380Z,304.67
2019-01-12T09:20:05.149Z,305.20
2019-01-12T09:21:05.191Z,304.80
2019-01-12T09:22:05.118Z,305.22
2019-01-12T09:23:05.126Z,304.34
2019-01-12T09:24:05.107Z,305.40
2019-01-12T09:25:05.107Z,304.61
2019-01-12T09:26:05.094Z,304.90
2019-01-12T09:27:05.078Z,304.44
2019-01-12T09:28:05.101Z,305.17
2019-01-12T09:29:05.065Z,305.45
2019-01-12T09:30:05.022Z,305.30
2019-01-12T09:31:05.867Z,304.90
2019-01-12T09:32:05.857Z,305.35
2019-01-12T09:33:05.021Z,304.61
2019-01-12T09:34:05.059Z,305.11
2019-01-12T09:35:04.987Z,305.42
2019-01-12T09:36:04.998Z,305.94
2019-01-12T09:37:04.947Z,304.74
2019-01-12T09:38:04.998Z,305.50
2019-01-12T09:39:04.949Z,304.77
2019-01-12T09:40:04.929Z,305.37
2019-01-12T09:41:04.934Z,304.88
2019-01-12T09:42:04.977Z,305.12
2019-01-12T09:43:04.932Z,304.47
2019-01-12T09:44:04.881Z,304.92
2019-01-12T09:45:04.865Z,304.86
2019-01-12T09:46:04.853Z,304.80
2019-01-12T09:47:04.872Z,304.69
2019-01-12T09:48:04.883Z,305.15
2019-01-12T09:49:04.861Z,305.18
2019-01-12T09:50:04.847Z,304.12
2019-01-12T09:51:04.820Z,304.79
2019-01-12T09:52:04.787Z,305.25
2019-01-12T09:53:04.895Z,304.48
2019-01-12T09:54:04.811Z,304.20
2019-01-12T09:55:04.756Z,304.69
2019-01-12T09:56:04.860Z,304.02
2019-01-12T09:57:04.834Z,304.65
2019-01-12T09:58:04.781Z,305.17
2019-01-12T09:59:04.795Z,305.22
2019-01-12T10:00:05.397Z,305.58
2019-01-12T10:01:05.536Z,305.81
2019-01-12T10:02:04.752Z,305.03
2019-01-12T10:03:15.520Z,304.68
2019-01-12T10:05:45.738Z,305.08
2019-01-12T10:06:44.117Z,304.62
2019-01-12T10:07:44.146Z,304.93
2019-01-12T10:08:44.066Z,304.86
2019-01-12T10:09:44.155Z,305.09
2019-01-12T10:10:44.067Z,305.66
2019-01-12T10:11:44.058Z,305.16
2019-01-12T10:12:44.045Z,305.43
2019-01-12T10:13:44.053Z,305.60
2019-01-12T10:14:44.035Z,304.41
2019-01-12T10:15:44.002Z,304.54
2019-01-12T10:16:44.013Z,304.38
2019-01-12T10:17:43.978Z,304.00
2019-01-12T10:18:44.028Z,303.99
2019-01-12T10:19:44.144Z,303.58
2019-01-12T10:20:43.965Z,303.52
2019-01-12T10:21:43.924Z,304.40
2019-01-12T10:22:43.953Z,304.43
2019-01-12T10:23:43.904Z,304.12
2019-01-12T10:24:43.906Z,303.90
2019-01-12T10:25:43.887Z,304.33
2019-01-12T10:26:43.865Z,303.75
2019-01-12T10:27:43.882Z,304.19
2019-01-12T10:28:43.901Z,303.74
2019-01-12T10:29:52.152Z,304.24
2019-01-12T10:30:43.867Z,303.43
2019-01-12T10:31:43.821Z,303.75
2019-01-12T10:32:43.822Z,304.08
2019-01-12T10:33:43.822Z,303.86
2019-01-12T10:34:43.811Z,303.66
2019-01-12T10:35:43.788Z,303.21
2019-01-12T10:36:43.793Z,303.24
2019-01-12T10:37:43.784Z,303.42
2019-01-12T10:38:43.756Z,303.34
2019-01-12T10:39:43.814Z,303.51
2019-01-12T10:40:43.716Z,303.30
2019-01-12T10:41:43.699Z,303.80
2019-01-12T10:44:00.326Z,301.89
2019-01-12T10:45:00.282Z,303.25
2019-01-12T10:46:00.287Z,303.44
2019-01-12T10:47:00.273Z,303.19
2019-01-12T10:48:00.265Z,303.05
2019-01-12T10:49:00.255Z,303.02
2019-01-12T10:50:01.639Z,302.98
2019-01-12T10:51:00.224Z,302.13
2019-01-12T10:52:00.218Z,303.20
2019-01-12T10:53:00.310Z,302.79
2019-01-12T10:54:00.230Z,302.93
2019-01-12T10:55:00.244Z,303.15
2019-01-12T10:56:00.177Z,302.18
2019-01-12T10:57:05.410Z,303.00
2019-01-12T10:58:01.167Z,302.69
2019-01-12T10:59:00.154Z,302.84
2019-01-12T11:00:00.244Z,303.13
2019-01-12T11:01:00.102Z,302.90
2019-01-12T11:02:00.106Z,302.87
2019-01-12T11:03:00.110Z,303.46
2019-01-12T11:04:00.096Z,302.50
2019-01-12T11:05:00.217Z,302.55
2019-01-12T11:06:00.094Z,302.78
2019-01-12T11:07:00.050Z,302.60
2019-01-12T11:08:00.050Z,302.71
2019-01-12T11:09:00.041Z,302.45
2019-01-12T11:10:04.083Z,303.39
2019-01-12T11:11:00.062Z,302.37
2019-01-12T11:12:00.001Z,302.67
2019-01-12T11:12:59.982Z,302.19
2019-01-12T11:13:59.978Z,302.05
2019-01-12T11:14:59.983Z,302.24
2019-01-12T11:15:59.962Z,301.67
2019-01-12T11:16:59.967Z,301.93
2019-01-12T11:17:59.946Z,302.38
2019-01-12T11:18:59.922Z,302.18
2019-01-12T11:19:59.941Z,302.57
2019-01-12T11:20:59.941Z,302.18
2019-01-12T11:21:59.944Z,301.89
2019-01-12T11:22:59.889Z,302.57
2019-01-12T11:23:59.883Z,302.09
2019-01-12T11:24:59.873Z,302.65
2019-01-12T11:25:59.956Z,301.96
2019-01-12T11:26:59.854Z,301.73
2019-01-12T11:27:59.835Z,302.23
2019-01-12T11:28:59.821Z,302.36
2019-01-12T11:29:59.852Z,302.69
2019-01-12T11:30:59.796Z,302.18
2019-01-12T11:31:59.794Z,302.17
2019-01-12T11:32:59.796Z,301.65
2019-01-12T11:33:59.772Z,301.92
2019-01-12T11:34:59.801Z,302.38
2019-01-12T11:35:59.757Z,301.76
2019-01-12T11:36:59.762Z,302.04
2019-01-12T11:37:59.744Z,301.69
2019-01-12T11:38:59.713Z,302.14
2019-01-12T11:39:59.732Z,301.89
2019-01-12T11:40:59.691Z,301.47
2019-01-12T11:41:59.697Z,302.17
2019-01-12T11:42:59.691Z,301.58
2019-01-12T11:43:59.702Z,301.58
2019-01-12T11:44:59.659Z,301.68
2019-01-12T11:45:59.673Z,301.85
2019-01-12T11:46:59.678Z,302.12
2019-01-12T11:48:07.728Z,301.87
2019-01-12T11:49:01.154Z,301.86
2019-01-12T11:50:06.746Z,302.17
2019-01-12T11:51:07.648Z,302.53
2019-01-12T11:51:59.623Z,301.82
2019-01-12T11:53:01.089Z,302.25
2019-01-12T11:53:59.565Z,301.82
2019-01-12T11:54:59.570Z,302.85
2019-01-12T11:55:59.527Z,302.27
2019-01-12T11:56:59.537Z,302.07
2019-01-12T11:58:00.190Z,302.89
2019-01-12T11:58:59.518Z,302.52
2019-01-12T11:59:59.521Z,302.13
2019-01-12T12:00:59.521Z,301.77
2019-01-12T12:01:59.479Z,302.38
2019-01-12T12:02:59.485Z,301.97
2019-01-12T12:03:59.478Z,303.04
2019-01-12T12:04:59.486Z,302.69
2019-01-12T12:05:59.470Z,302.52
2019-01-12T12:06:59.417Z,302.34
2019-01-12T12:07:59.395Z,302.36
2019-01-12T12:08:59.384Z,303.35
2019-01-12T12:09:59.492Z,303.45
2019-01-12T12:10:59.379Z,303.93
2019-01-12T12:11:59.389Z,303.84
2019-01-12T12:12:59.333Z,303.78
2019-01-12T12:13:59.333Z,304.19
2019-01-12T12:14:59.346Z,304.20
2019-01-12T12:15:59.325Z,303.52
2019-01-12T12:16:59.306Z,303.07
2019-01-12T12:17:59.303Z,302.84
2019-01-12T12:18:59.307Z,303.25
2019-01-12T12:19:59.750Z,303.50
2019-01-12T12:20:59.268Z,302.92
2019-01-12T12:21:59.293Z,303.03
2019-01-12T12:22:59.235Z,302.09
2019-01-12T12:23:59.267Z,303.00
2019-01-12T12:24:59.317Z,303.26
2019-01-12T12:25:59.220Z,303.00
2019-01-12T12:26:59.201Z,303.17
2019-01-12T12:27:59.199Z,303.28
2019-01-12T12:28:59.183Z,303.34
2019-01-12T12:29:59.214Z,303.20
2019-01-12T12:30:59.165Z,303.33
2019-01-12T12:31:59.162Z,302.88
2019-01-12T12:32:59.194Z,302.07
2019-01-12T12:33:59.133Z,302.81
2019-01-12T12:34:59.146Z,301.66
2019-01-12T12:35:59.116Z,302.18
2019-01-12T12:36:59.119Z,301.93
2019-01-12T12:37:59.099Z,302.43
2019-01-12T12:38:59.088Z,303.03
2019-01-12T12:39:59.084Z,303.40
2019-01-12T12:40:59.070Z,302.04
2019-01-12T12:41:59.097Z,301.85
2019-01-12T12:42:59.084Z,302.49
2019-01-12T12:43:59.036Z,303.06
2019-01-12T12:44:59.087Z,302.91
2019-01-12T12:45:59.008Z,302.68
2019-01-12T12:46:59.018Z,302.60
2019-01-12T12:47:58.984Z,302.07
2019-01-12T12:48:59.092Z,302.58
2019-01-12T12:49:58.958Z,302.10